sensor_id;sensor_type;location;lat;lon;timestamp;P1;durP1;ratioP1;P2;durP2;ratioP2
80255;SDS011;69564;37.974;23.708;2023-04-29T00:01:54;10.85;;;6.22;;
80255;SDS011;69564;37.974;23.708;2023-04-29T00:04:23;8.85;;;6.20;;
80255;SDS011;69564;37.974;23.708;2023-04-29T00:06:49;9.43;;;5.68;;
80255;SDS011;69564;37.974;23.708;2023-04-29T00:09:15;6.63;;;5.93;;
80255;SDS011;69564;37.974;23.708;2023-04-29T00:11:41;7.13;;;6.00;;
80255;SDS011;69564;37.974;23.708;2023-04-29T00:14:06;6.45;;;5.72;;
80255;SDS011;69564;37.974;23.708;2023-04-29T00:16:32;9.18;;;6.07;;
80255;SDS011;69564;37.974;23.708;2023-04-29T00:18:58;7.50;;;5.63;;
80255;SDS011;69564;37.974;23.708;2023-04-29T00:21:24;6.03;;;5.38;;
80255;SDS011;69564;37.974;23.708;2023-04-29T00:23:51;7.47;;;6.13;;
80255;SDS011;69564;37.974;23.708;2023-04-29T00:26:17;10.15;;;5.90;;
80255;SDS011;69564;37.974;23.708;2023-04-29T00:28:43;6.32;;;5.45;;
80255;SDS011;69564;37.974;23.708;2023-04-29T00:31:09;9.38;;;6.05;;
80255;SDS011;69564;37.974;23.708;2023-04-29T00:33:34;8.23;;;5.53;;
80255;SDS011;69564;37.974;23.708;2023-04-29T00:36:00;6.60;;;5.68;;
80255;SDS011;69564;37.974;23.708;2023-04-29T00:38:27;6.82;;;5.78;;
80255;SDS011;69564;37.974;23.708;2023-04-29T00:40:52;6.10;;;5.35;;
80255;SDS011;69564;37.974;23.708;2023-04-29T00:43:19;6.00;;;5.18;;
80255;SDS011;69564;37.974;23.708;2023-04-29T00:45:45;9.15;;;5.60;;
80255;SDS011;69564;37.974;23.708;2023-04-29T00:48:11;7.80;;;5.43;;
80255;SDS011;69564;37.974;23.708;2023-04-29T00:50:39;8.18;;;5.50;;
80255;SDS011;69564;37.974;23.708;2023-04-29T00:53:06;7.53;;;5.38;;
80255;SDS011;69564;37.974;23.708;2023-04-29T00:55:32;5.55;;;5.03;;
80255;SDS011;69564;37.974;23.708;2023-04-29T00:57:59;8.35;;;4.82;;
80255;SDS011;69564;37.974;23.708;2023-04-29T01:00:26;6.97;;;5.80;;
80255;SDS011;69564;37.974;23.708;2023-04-29T01:02:53;11.65;;;6.20;;
80255;SDS011;69564;37.974;23.708;2023-04-29T01:05:22;6.03;;;5.30;;
80255;SDS011;69564;37.974;23.708;2023-04-29T01:08:05;7.38;;;5.47;;
80255;SDS011;69564;37.974;23.708;2023-04-29T01:10:54;5.50;;;4.90;;
80255;SDS011;69564;37.974;23.708;2023-04-29T01:13:51;6.45;;;4.88;;
80255;SDS011;69564;37.974;23.708;2023-04-29T01:19:01;5.30;;;4.50;;
80255;SDS011;69564;37.974;23.708;2023-04-29T01:21:31;6.07;;;5.18;;
80255;SDS011;69564;37.974;23.708;2023-04-29T01:23:57;6.47;;;4.85;;
80255;SDS011;69564;37.974;23.708;2023-04-29T01:26:23;7.47;;;4.93;;
80255;SDS011;69564;37.974;23.708;2023-04-29T01:28:50;6.22;;;4.68;;
80255;SDS011;69564;37.974;23.708;2023-04-29T01:31:30;9.15;;;5.20;;
80255;SDS011;69564;37.974;23.708;2023-04-29T01:34:10;6.10;;;5.45;;
80255;SDS011;69564;37.974;23.708;2023-04-29T01:37:03;7.40;;;4.72;;
80255;SDS011;69564;37.974;23.708;2023-04-29T01:39:55;7.38;;;5.30;;
80255;SDS011;69564;37.974;23.708;2023-04-29T01:42:45;7.00;;;4.93;;
80255;SDS011;69564;37.974;23.708;2023-04-29T01:45:16;6.68;;;4.90;;
80255;SDS011;69564;37.974;23.708;2023-04-29T01:47:43;8.35;;;5.35;;
80255;SDS011;69564;37.974;23.708;2023-04-29T01:50:11;7.72;;;5.93;;
80255;SDS011;69564;37.974;23.708;2023-04-29T01:52:37;6.28;;;5.22;;
80255;SDS011;69564;37.974;23.708;2023-04-29T01:55:03;6.80;;;5.25;;
80255;SDS011;69564;37.974;23.708;2023-04-29T01:57:30;6.10;;;5.45;;
80255;SDS011;69564;37.974;23.708;2023-04-29T01:59:56;8.13;;;6.00;;
80255;SDS011;69564;37.974;23.708;2023-04-29T02:02:22;7.03;;;5.55;;
80255;SDS011;69564;37.974;23.708;2023-04-29T02:04:49;8.13;;;5.85;;
80255;SDS011;69564;37.974;23.708;2023-04-29T02:07:15;7.68;;;5.30;;
80255;SDS011;69564;37.974;23.708;2023-04-29T02:09:41;7.82;;;5.30;;
80255;SDS011;69564;37.974;23.708;2023-04-29T02:12:07;6.47;;;5.80;;
80255;SDS011;69564;37.974;23.708;2023-04-29T02:14:33;6.80;;;5.75;;
80255;SDS011;69564;37.974;23.708;2023-04-29T02:16:59;7.07;;;5.55;;
80255;SDS011;69564;37.974;23.708;2023-04-29T02:19:24;6.82;;;5.50;;
80255;SDS011;69564;37.974;23.708;2023-04-29T02:21:50;6.05;;;5.28;;
80255;SDS011;69564;37.974;23.708;2023-04-29T02:24:16;8.43;;;6.15;;
80255;SDS011;69564;37.974;23.708;2023-04-29T02:26:41;5.60;;;5.00;;
80255;SDS011;69564;37.974;23.708;2023-04-29T02:29:07;9.00;;;5.65;;
80255;SDS011;69564;37.974;23.708;2023-04-29T02:31:34;6.75;;;4.93;;
80255;SDS011;69564;37.974;23.708;2023-04-29T02:34:00;7.35;;;5.38;;
80255;SDS011;69564;37.974;23.708;2023-04-29T02:36:25;7.75;;;5.30;;
80255;SDS011;69564;37.974;23.708;2023-04-29T02:38:52;14.65;;;5.53;;
80255;SDS011;69564;37.974;23.708;2023-04-29T02:41:20;6.63;;;5.40;;
80255;SDS011;69564;37.974;23.708;2023-04-29T02:43:46;7.07;;;5.53;;
80255;SDS011;69564;37.974;23.708;2023-04-29T02:46:13;10.73;;;5.50;;
80255;SDS011;69564;37.974;23.708;2023-04-29T02:48:39;7.82;;;5.03;;
80255;SDS011;69564;37.974;23.708;2023-04-29T02:51:05;6.80;;;5.72;;
80255;SDS011;69564;37.974;23.708;2023-04-29T02:53:31;5.78;;;4.75;;
80255;SDS011;69564;37.974;23.708;2023-04-29T02:55:57;5.80;;;5.20;;
80255;SDS011;69564;37.974;23.708;2023-04-29T02:58:22;9.48;;;5.60;;
80255;SDS011;69564;37.974;23.708;2023-04-29T03:00:48;8.60;;;5.55;;
80255;SDS011;69564;37.974;23.708;2023-04-29T03:03:14;8.25;;;5.57;;
80255;SDS011;69564;37.974;23.708;2023-04-29T03:05:41;6.57;;;5.88;;
80255;SDS011;69564;37.974;23.708;2023-04-29T03:08:07;6.55;;;5.00;;
80255;SDS011;69564;37.974;23.708;2023-04-29T03:10:34;7.68;;;5.20;;
80255;SDS011;69564;37.974;23.708;2023-04-29T03:13:00;8.27;;;5.25;;
80255;SDS011;69564;37.974;23.708;2023-04-29T03:15:26;7.35;;;5.20;;
80255;SDS011;69564;37.974;23.708;2023-04-29T03:17:52;7.90;;;5.07;;
80255;SDS011;69564;37.974;23.708;2023-04-29T03:20:18;7.63;;;5.30;;
80255;SDS011;69564;37.974;23.708;2023-04-29T03:22:44;5.60;;;4.95;;
80255;SDS011;69564;37.974;23.708;2023-04-29T03:25:10;7.72;;;5.32;;
80255;SDS011;69564;37.974;23.708;2023-04-29T03:27:37;10.15;;;5.85;;
80255;SDS011;69564;37.974;23.708;2023-04-29T03:30:03;8.43;;;5.35;;
80255;SDS011;69564;37.974;23.708;2023-04-29T03:32:30;7.32;;;5.22;;
80255;SDS011;69564;37.974;23.708;2023-04-29T03:34:56;7.18;;;5.65;;
80255;SDS011;69564;37.974;23.708;2023-04-29T03:37:22;7.25;;;5.82;;
80255;SDS011;69564;37.974;23.708;2023-04-29T03:39:48;7.28;;;5.35;;
80255;SDS011;69564;37.974;23.708;2023-04-29T03:42:14;7.43;;;5.60;;
80255;SDS011;69564;37.974;23.708;2023-04-29T03:44:39;6.93;;;5.47;;
80255;SDS011;69564;37.974;23.708;2023-04-29T03:47:05;7.00;;;4.75;;
80255;SDS011;69564;37.974;23.708;2023-04-29T03:49:31;7.47;;;5.05;;
80255;SDS011;69564;37.974;23.708;2023-04-29T03:51:58;6.90;;;5.60;;
80255;SDS011;69564;37.974;23.708;2023-04-29T03:54:24;9.30;;;5.45;;
80255;SDS011;69564;37.974;23.708;2023-04-29T03:56:50;5.65;;;4.85;;
80255;SDS011;69564;37.974;23.708;2023-04-29T03:59:15;7.43;;;4.88;;
80255;SDS011;69564;37.974;23.708;2023-04-29T04:01:41;6.03;;;5.38;;
80255;SDS011;69564;37.974;23.708;2023-04-29T04:04:07;5.53;;;4.90;;
80255;SDS011;69564;37.974;23.708;2023-04-29T04:06:32;6.75;;;5.20;;
80255;SDS011;69564;37.974;23.708;2023-04-29T04:08:58;9.25;;;4.75;;
80255;SDS011;69564;37.974;23.708;2023-04-29T04:11:24;7.72;;;5.35;;
80255;SDS011;69564;37.974;23.708;2023-04-29T04:13:50;6.85;;;5.53;;
80255;SDS011;69564;37.974;23.708;2023-04-29T04:16:16;5.95;;;5.35;;
80255;SDS011;69564;37.974;23.708;2023-04-29T04:18:41;5.88;;;5.38;;
80255;SDS011;69564;37.974;23.708;2023-04-29T04:21:11;5.55;;;5.03;;
80255;SDS011;69564;37.974;23.708;2023-04-29T04:23:37;6.65;;;5.30;;
80255;SDS011;69564;37.974;23.708;2023-04-29T04:26:06;5.30;;;4.78;;
80255;SDS011;69564;37.974;23.708;2023-04-29T04:28:32;5.75;;;5.10;;
80255;SDS011;69564;37.974;23.708;2023-04-29T04:30:58;6.15;;;4.93;;
80255;SDS011;69564;37.974;23.708;2023-04-29T04:33:24;5.18;;;4.63;;
80255;SDS011;69564;37.974;23.708;2023-04-29T04:35:50;7.93;;;5.32;;
80255;SDS011;69564;37.974;23.708;2023-04-29T04:38:16;9.10;;;6.25;;
80255;SDS011;69564;37.974;23.708;2023-04-29T04:40:42;8.50;;;6.68;;
80255;SDS011;69564;37.974;23.708;2023-04-29T04:43:08;8.60;;;5.50;;
80255;SDS011;69564;37.974;23.708;2023-04-29T04:45:34;10.65;;;5.53;;
80255;SDS011;69564;37.974;23.708;2023-04-29T04:48:00;7.53;;;6.05;;
80255;SDS011;69564;37.974;23.708;2023-04-29T04:50:28;7.47;;;5.88;;
80255;SDS011;69564;37.974;23.708;2023-04-29T04:52:54;7.72;;;5.38;;
80255;SDS011;69564;37.974;23.708;2023-04-29T04:55:20;11.63;;;5.90;;
80255;SDS011;69564;37.974;23.708;2023-04-29T04:57:46;9.43;;;6.15;;
80255;SDS011;69564;37.974;23.708;2023-04-29T05:00:12;7.97;;;6.72;;
80255;SDS011;69564;37.974;23.708;2023-04-29T05:02:38;9.48;;;6.00;;
80255;SDS011;69564;37.974;23.708;2023-04-29T05:05:04;8.50;;;6.47;;
80255;SDS011;69564;37.974;23.708;2023-04-29T05:07:31;10.77;;;7.60;;
80255;SDS011;69564;37.974;23.708;2023-04-29T05:09:59;7.90;;;6.25;;
80255;SDS011;69564;37.974;23.708;2023-04-29T05:12:29;9.75;;;6.38;;
80255;SDS011;69564;37.974;23.708;2023-04-29T05:14:56;9.45;;;7.13;;
80255;SDS011;69564;37.974;23.708;2023-04-29T05:17:21;7.95;;;6.15;;
80255;SDS011;69564;37.974;23.708;2023-04-29T05:19:47;11.95;;;7.43;;
80255;SDS011;69564;37.974;23.708;2023-04-29T05:22:14;8.45;;;6.70;;
80255;SDS011;69564;37.974;23.708;2023-04-29T05:24:40;9.13;;;6.88;;
80255;SDS011;69564;37.974;23.708;2023-04-29T05:27:05;10.30;;;6.82;;
80255;SDS011;69564;37.974;23.708;2023-04-29T05:29:31;10.75;;;6.15;;
80255;SDS011;69564;37.974;23.708;2023-04-29T05:31:57;8.50;;;7.07;;
80255;SDS011;69564;37.974;23.708;2023-04-29T05:34:23;11.07;;;6.07;;
80255;SDS011;69564;37.974;23.708;2023-04-29T05:36:49;8.27;;;6.50;;
80255;SDS011;69564;37.974;23.708;2023-04-29T05:39:14;9.60;;;6.40;;
80255;SDS011;69564;37.974;23.708;2023-04-29T05:41:41;9.77;;;6.55;;
80255;SDS011;69564;37.974;23.708;2023-04-29T05:44:07;9.57;;;6.78;;
80255;SDS011;69564;37.974;23.708;2023-04-29T05:46:33;7.90;;;6.68;;
80255;SDS011;69564;37.974;23.708;2023-04-29T05:49:01;12.43;;;6.60;;
80255;SDS011;69564;37.974;23.708;2023-04-29T05:51:26;12.88;;;6.43;;
80255;SDS011;69564;37.974;23.708;2023-04-29T05:53:52;8.43;;;7.07;;
80255;SDS011;69564;37.974;23.708;2023-04-29T05:56:18;7.97;;;6.32;;
80255;SDS011;69564;37.974;23.708;2023-04-29T05:58:44;9.07;;;5.78;;
80255;SDS011;69564;37.974;23.708;2023-04-29T06:01:10;7.65;;;5.82;;
80255;SDS011;69564;37.974;23.708;2023-04-29T06:03:36;8.73;;;5.80;;
80255;SDS011;69564;37.974;23.708;2023-04-29T06:06:02;6.20;;;5.25;;
80255;SDS011;69564;37.974;23.708;2023-04-29T06:08:28;8.40;;;4.68;;
80255;SDS011;69564;37.974;23.708;2023-04-29T06:10:54;7.63;;;4.75;;
80255;SDS011;69564;37.974;23.708;2023-04-29T06:13:20;7.32;;;4.38;;
80255;SDS011;69564;37.974;23.708;2023-04-29T06:15:46;8.25;;;4.80;;
80255;SDS011;69564;37.974;23.708;2023-04-29T06:18:11;7.28;;;4.70;;
80255;SDS011;69564;37.974;23.708;2023-04-29T06:20:37;7.78;;;4.70;;
80255;SDS011;69564;37.974;23.708;2023-04-29T06:23:03;10.45;;;4.88;;
80255;SDS011;69564;37.974;23.708;2023-04-29T06:25:29;6.03;;;4.45;;
80255;SDS011;69564;37.974;23.708;2023-04-29T06:27:56;7.75;;;4.55;;
80255;SDS011;69564;37.974;23.708;2023-04-29T06:30:22;8.70;;;4.93;;
80255;SDS011;69564;37.974;23.708;2023-04-29T06:32:47;7.05;;;4.53;;
80255;SDS011;69564;37.974;23.708;2023-04-29T06:35:14;5.47;;;4.45;;
80255;SDS011;69564;37.974;23.708;2023-04-29T06:37:40;4.72;;;4.15;;
80255;SDS011;69564;37.974;23.708;2023-04-29T06:40:05;4.80;;;4.22;;
80255;SDS011;69564;37.974;23.708;2023-04-29T06:42:32;4.95;;;4.18;;
80255;SDS011;69564;37.974;23.708;2023-04-29T06:44:57;5.43;;;4.63;;
80255;SDS011;69564;37.974;23.708;2023-04-29T06:47:23;6.15;;;4.47;;
80255;SDS011;69564;37.974;23.708;2023-04-29T06:49:49;11.68;;;5.57;;
80255;SDS011;69564;37.974;23.708;2023-04-29T06:52:16;4.75;;;4.35;;
80255;SDS011;69564;37.974;23.708;2023-04-29T06:54:43;5.93;;;5.07;;
80255;SDS011;69564;37.974;23.708;2023-04-29T06:57:08;5.78;;;4.47;;
80255;SDS011;69564;37.974;23.708;2023-04-29T06:59:34;7.60;;;4.47;;
80255;SDS011;69564;37.974;23.708;2023-04-29T07:02:00;5.13;;;4.25;;
80255;SDS011;69564;37.974;23.708;2023-04-29T07:04:26;5.97;;;4.43;;
80255;SDS011;69564;37.974;23.708;2023-04-29T07:06:51;6.53;;;4.82;;
80255;SDS011;69564;37.974;23.708;2023-04-29T07:09:18;7.15;;;4.90;;
80255;SDS011;69564;37.974;23.708;2023-04-29T07:11:43;12.25;;;5.15;;
80255;SDS011;69564;37.974;23.708;2023-04-29T07:14:09;5.35;;;4.43;;
80255;SDS011;69564;37.974;23.708;2023-04-29T07:16:35;6.03;;;4.18;;
80255;SDS011;69564;37.974;23.708;2023-04-29T07:19:01;6.20;;;3.80;;
80255;SDS011;69564;37.974;23.708;2023-04-29T07:21:26;5.25;;;4.40;;
80255;SDS011;69564;37.974;23.708;2023-04-29T07:23:52;6.00;;;4.60;;
80255;SDS011;69564;37.974;23.708;2023-04-29T07:26:19;5.55;;;4.38;;
80255;SDS011;69564;37.974;23.708;2023-04-29T07:28:46;5.47;;;4.47;;
80255;SDS011;69564;37.974;23.708;2023-04-29T07:31:13;6.15;;;4.45;;
80255;SDS011;69564;37.974;23.708;2023-04-29T07:33:39;5.45;;;3.88;;
80255;SDS011;69564;37.974;23.708;2023-04-29T07:36:04;4.85;;;3.80;;
80255;SDS011;69564;37.974;23.708;2023-04-29T07:38:31;5.55;;;4.05;;
80255;SDS011;69564;37.974;23.708;2023-04-29T07:40:57;5.95;;;4.53;;
80255;SDS011;69564;37.974;23.708;2023-04-29T07:43:23;4.68;;;4.15;;
80255;SDS011;69564;37.974;23.708;2023-04-29T07:45:49;4.28;;;3.90;;
80255;SDS011;69564;37.974;23.708;2023-04-29T07:48:15;4.65;;;3.80;;
80255;SDS011;69564;37.974;23.708;2023-04-29T07:50:41;4.15;;;3.75;;
80255;SDS011;69564;37.974;23.708;2023-04-29T07:53:07;4.40;;;4.00;;
80255;SDS011;69564;37.974;23.708;2023-04-29T07:55:32;4.55;;;4.00;;
80255;SDS011;69564;37.974;23.708;2023-04-29T07:57:58;6.13;;;3.95;;
80255;SDS011;69564;37.974;23.708;2023-04-29T08:00:24;4.93;;;4.13;;
80255;SDS011;69564;37.974;23.708;2023-04-29T08:02:52;5.68;;;3.80;;
80255;SDS011;69564;37.974;23.708;2023-04-29T08:05:18;6.93;;;3.90;;
80255;SDS011;69564;37.974;23.708;2023-04-29T08:07:45;3.92;;;3.53;;
80255;SDS011;69564;37.974;23.708;2023-04-29T08:10:15;3.58;;;3.25;;
80255;SDS011;69564;37.974;23.708;2023-04-29T08:12:45;4.07;;;3.70;;
80255;SDS011;69564;37.974;23.708;2023-04-29T08:15:11;3.92;;;3.63;;
80255;SDS011;69564;37.974;23.708;2023-04-29T08:17:36;4.57;;;3.65;;
80255;SDS011;69564;37.974;23.708;2023-04-29T08:20:02;5.50;;;3.75;;
80255;SDS011;69564;37.974;23.708;2023-04-29T08:22:28;4.88;;;4.15;;
80255;SDS011;69564;37.974;23.708;2023-04-29T08:24:54;4.15;;;3.75;;
80255;SDS011;69564;37.974;23.708;2023-04-29T08:27:20;4.20;;;3.80;;
80255;SDS011;69564;37.974;23.708;2023-04-29T08:29:46;4.10;;;3.70;;
80255;SDS011;69564;37.974;23.708;2023-04-29T08:32:11;4.68;;;4.00;;
80255;SDS011;69564;37.974;23.708;2023-04-29T08:34:37;3.88;;;3.55;;
80255;SDS011;69564;37.974;23.708;2023-04-29T08:37:05;4.70;;;4.30;;
80255;SDS011;69564;37.974;23.708;2023-04-29T08:39:31;5.53;;;3.75;;
80255;SDS011;69564;37.974;23.708;2023-04-29T08:41:57;4.70;;;4.15;;
80255;SDS011;69564;37.974;23.708;2023-04-29T08:44:27;5.45;;;3.67;;
80255;SDS011;69564;37.974;23.708;2023-04-29T08:46:54;4.80;;;3.83;;
80255;SDS011;69564;37.974;23.708;2023-04-29T08:49:21;4.00;;;3.60;;
80255;SDS011;69564;37.974;23.708;2023-04-29T08:51:47;3.95;;;3.65;;
80255;SDS011;69564;37.974;23.708;2023-04-29T08:54:15;6.20;;;3.90;;
80255;SDS011;69564;37.974;23.708;2023-04-29T08:56:42;3.92;;;3.63;;
80255;SDS011;69564;37.974;23.708;2023-04-29T08:59:10;4.45;;;3.80;;
80255;SDS011;69564;37.974;23.708;2023-04-29T09:01:41;4.03;;;3.63;;
80255;SDS011;69564;37.974;23.708;2023-04-29T09:04:08;4.75;;;4.10;;
80255;SDS011;69564;37.974;23.708;2023-04-29T09:06:55;3.75;;;3.40;;
80255;SDS011;69564;37.974;23.708;2023-04-29T09:09:23;5.78;;;3.78;;
80255;SDS011;69564;37.974;23.708;2023-04-29T09:11:50;4.85;;;3.35;;
80255;SDS011;69564;37.974;23.708;2023-04-29T09:14:16;5.78;;;4.45;;
80255;SDS011;69564;37.974;23.708;2023-04-29T09:16:45;4.05;;;3.65;;
80255;SDS011;69564;37.974;23.708;2023-04-29T09:19:12;6.10;;;3.83;;
80255;SDS011;69564;37.974;23.708;2023-04-29T09:21:57;4.45;;;4.05;;
80255;SDS011;69564;37.974;23.708;2023-04-29T09:24:24;4.22;;;3.92;;
80255;SDS011;69564;37.974;23.708;2023-04-29T09:26:54;5.50;;;3.70;;
80255;SDS011;69564;37.974;23.708;2023-04-29T09:29:21;3.72;;;3.40;;
80255;SDS011;69564;37.974;23.708;2023-04-29T09:31:48;5.80;;;3.67;;
80255;SDS011;69564;37.974;23.708;2023-04-29T09:34:15;4.35;;;3.83;;
80255;SDS011;69564;37.974;23.708;2023-04-29T09:39:11;6.85;;;3.92;;
80255;SDS011;69564;37.974;23.708;2023-04-29T09:42:02;4.85;;;4.13;;
80255;SDS011;69564;37.974;23.708;2023-04-29T09:44:28;4.50;;;3.50;;
80255;SDS011;69564;37.974;23.708;2023-04-29T09:47:05;4.38;;;3.60;;
80255;SDS011;69564;37.974;23.708;2023-04-29T09:49:33;4.05;;;3.75;;
80255;SDS011;69564;37.974;23.708;2023-04-29T09:54:31;4.25;;;3.90;;
80255;SDS011;69564;37.974;23.708;2023-04-29T09:56:58;4.63;;;4.05;;
80255;SDS011;69564;37.974;23.708;2023-04-29T09:59:26;4.55;;;3.95;;
80255;SDS011;69564;37.974;23.708;2023-04-29T10:01:54;5.50;;;3.97;;
80255;SDS011;69564;37.974;23.708;2023-04-29T10:04:21;4.20;;;3.80;;
80255;SDS011;69564;37.974;23.708;2023-04-29T10:06:49;4.43;;;3.60;;
80255;SDS011;69564;37.974;23.708;2023-04-29T10:09:19;4.20;;;3.80;;
80255;SDS011;69564;37.974;23.708;2023-04-29T10:11:48;4.90;;;3.92;;
80255;SDS011;69564;37.974;23.708;2023-04-29T10:14:15;4.72;;;3.60;;
80255;SDS011;69564;37.974;23.708;2023-04-29T10:16:53;3.83;;;3.53;;
80255;SDS011;69564;37.974;23.708;2023-04-29T10:19:49;4.13;;;3.83;;
80255;SDS011;69564;37.974;23.708;2023-04-29T10:22:25;4.35;;;3.83;;
80255;SDS011;69564;37.974;23.708;2023-04-29T10:25:22;3.80;;;3.47;;
80255;SDS011;69564;37.974;23.708;2023-04-29T10:27:49;4.78;;;3.38;;
80255;SDS011;69564;37.974;23.708;2023-04-29T10:30:17;4.00;;;3.58;;
80255;SDS011;69564;37.974;23.708;2023-04-29T10:32:45;5.38;;;4.32;;
80255;SDS011;69564;37.974;23.708;2023-04-29T10:35:12;5.40;;;3.53;;
80255;SDS011;69564;37.974;23.708;2023-04-29T10:37:42;6.68;;;4.03;;
80255;SDS011;69564;37.974;23.708;2023-04-29T10:42:51;4.47;;;3.75;;
80255;SDS011;69564;37.974;23.708;2023-04-29T10:53:01;3.95;;;3.58;;
80255;SDS011;69564;37.974;23.708;2023-04-29T10:55:27;4.00;;;3.63;;
80255;SDS011;69564;37.974;23.708;2023-04-29T10:57:54;4.25;;;3.95;;
80255;SDS011;69564;37.974;23.708;2023-04-29T11:00:30;4.05;;;3.58;;
80255;SDS011;69564;37.974;23.708;2023-04-29T11:03:04;3.88;;;3.58;;
80255;SDS011;69564;37.974;23.708;2023-04-29T11:05:31;7.18;;;3.85;;
80255;SDS011;69564;37.974;23.708;2023-04-29T11:08:10;4.60;;;3.92;;
80255;SDS011;69564;37.974;23.708;2023-04-29T11:10:47;3.78;;;3.47;;
80255;SDS011;69564;37.974;23.708;2023-04-29T11:13:27;4.63;;;3.90;;
80255;SDS011;69564;37.974;23.708;2023-04-29T11:21:34;4.57;;;3.97;;
80255;SDS011;69564;37.974;23.708;2023-04-29T11:24:01;3.65;;;3.35;;
80255;SDS011;69564;37.974;23.708;2023-04-29T11:26:28;4.68;;;3.80;;
80255;SDS011;69564;37.974;23.708;2023-04-29T11:28:55;6.07;;;3.40;;
80255;SDS011;69564;37.974;23.708;2023-04-29T11:31:26;5.80;;;3.67;;
80255;SDS011;69564;37.974;23.708;2023-04-29T11:33:57;4.85;;;3.78;;
80255;SDS011;69564;37.974;23.708;2023-04-29T11:36:24;4.38;;;3.50;;
80255;SDS011;69564;37.974;23.708;2023-04-29T11:38:51;4.50;;;4.05;;
80255;SDS011;69564;37.974;23.708;2023-04-29T11:41:17;4.25;;;3.83;;
80255;SDS011;69564;37.974;23.708;2023-04-29T11:43:46;4.22;;;3.50;;
80255;SDS011;69564;37.974;23.708;2023-04-29T11:46:20;4.28;;;3.88;;
80255;SDS011;69564;37.974;23.708;2023-04-29T11:48:46;4.32;;;4.00;;
80255;SDS011;69564;37.974;23.708;2023-04-29T11:51:13;4.22;;;3.67;;
80255;SDS011;69564;37.974;23.708;2023-04-29T11:53:43;3.55;;;3.33;;
80255;SDS011;69564;37.974;23.708;2023-04-29T11:56:09;4.30;;;3.90;;
80255;SDS011;69564;37.974;23.708;2023-04-29T11:58:35;4.10;;;3.67;;
80255;SDS011;69564;37.974;23.708;2023-04-29T12:01:04;4.40;;;3.67;;
80255;SDS011;69564;37.974;23.708;2023-04-29T12:03:31;4.20;;;3.75;;
80255;SDS011;69564;37.974;23.708;2023-04-29T12:05:57;4.68;;;3.67;;
80255;SDS011;69564;37.974;23.708;2023-04-29T12:08:24;4.07;;;3.60;;
80255;SDS011;69564;37.974;23.708;2023-04-29T12:10:54;4.38;;;3.97;;
80255;SDS011;69564;37.974;23.708;2023-04-29T12:13:28;3.95;;;3.60;;
80255;SDS011;69564;37.974;23.708;2023-04-29T12:15:55;4.07;;;3.67;;
80255;SDS011;69564;37.974;23.708;2023-04-29T12:18:22;4.65;;;4.07;;
80255;SDS011;69564;37.974;23.708;2023-04-29T12:20:48;4.43;;;4.03;;
80255;SDS011;69564;37.974;23.708;2023-04-29T12:23:22;4.70;;;4.30;;
80255;SDS011;69564;37.974;23.708;2023-04-29T12:25:55;4.20;;;3.80;;
80255;SDS011;69564;37.974;23.708;2023-04-29T12:28:23;4.68;;;4.15;;
80255;SDS011;69564;37.974;23.708;2023-04-29T12:30:50;3.85;;;3.53;;
80255;SDS011;69564;37.974;23.708;2023-04-29T12:35:50;4.50;;;3.65;;
80255;SDS011;69564;37.974;23.708;2023-04-29T12:38:20;4.53;;;4.00;;
80255;SDS011;69564;37.974;23.708;2023-04-29T12:40:52;4.32;;;4.03;;
80255;SDS011;69564;37.974;23.708;2023-04-29T12:43:24;4.30;;;3.90;;
80255;SDS011;69564;37.974;23.708;2023-04-29T12:46:05;4.32;;;3.63;;
80255;SDS011;69564;37.974;23.708;2023-04-29T12:48:36;4.07;;;3.67;;
80255;SDS011;69564;37.974;23.708;2023-04-29T12:51:03;5.40;;;4.28;;
80255;SDS011;69564;37.974;23.708;2023-04-29T12:53:29;4.55;;;4.18;;
80255;SDS011;69564;37.974;23.708;2023-04-29T12:55:55;4.53;;;4.07;;
80255;SDS011;69564;37.974;23.708;2023-04-29T12:58:21;4.30;;;3.92;;
80255;SDS011;69564;37.974;23.708;2023-04-29T13:00:47;4.25;;;3.85;;
80255;SDS011;69564;37.974;23.708;2023-04-29T13:03:13;4.28;;;3.88;;
80255;SDS011;69564;37.974;23.708;2023-04-29T13:05:39;4.80;;;4.43;;
80255;SDS011;69564;37.974;23.708;2023-04-29T13:08:05;3.88;;;3.58;;
80255;SDS011;69564;37.974;23.708;2023-04-29T13:10:32;4.50;;;4.10;;
80255;SDS011;69564;37.974;23.708;2023-04-29T13:12:58;4.80;;;4.30;;
80255;SDS011;69564;37.974;23.708;2023-04-29T13:15:25;4.40;;;4.00;;
80255;SDS011;69564;37.974;23.708;2023-04-29T13:17:51;4.68;;;3.83;;
80255;SDS011;69564;37.974;23.708;2023-04-29T13:20:17;5.65;;;3.80;;
80255;SDS011;69564;37.974;23.708;2023-04-29T13:22:43;4.63;;;4.22;;
80255;SDS011;69564;37.974;23.708;2023-04-29T13:25:09;5.18;;;4.03;;
80255;SDS011;69564;37.974;23.708;2023-04-29T13:27:36;5.10;;;4.32;;
80255;SDS011;69564;37.974;23.708;2023-04-29T13:30:03;4.40;;;4.05;;
80255;SDS011;69564;37.974;23.708;2023-04-29T13:32:30;4.07;;;3.70;;
80255;SDS011;69564;37.974;23.708;2023-04-29T13:34:55;4.18;;;3.88;;
80255;SDS011;69564;37.974;23.708;2023-04-29T13:37:21;4.18;;;3.88;;
80255;SDS011;69564;37.974;23.708;2023-04-29T13:39:47;4.60;;;3.65;;
80255;SDS011;69564;37.974;23.708;2023-04-29T13:42:13;5.28;;;3.85;;
80255;SDS011;69564;37.974;23.708;2023-04-29T13:44:38;4.30;;;3.90;;
80255;SDS011;69564;37.974;23.708;2023-04-29T13:47:08;4.75;;;4.10;;
80255;SDS011;69564;37.974;23.708;2023-04-29T13:49:41;4.80;;;4.40;;
80255;SDS011;69564;37.974;23.708;2023-04-29T13:52:10;4.70;;;4.05;;
80255;SDS011;69564;37.974;23.708;2023-04-29T13:54:36;4.07;;;3.67;;
80255;SDS011;69564;37.974;23.708;2023-04-29T13:57:03;4.07;;;3.67;;
80255;SDS011;69564;37.974;23.708;2023-04-29T13:59:32;4.03;;;3.63;;
80255;SDS011;69564;37.974;23.708;2023-04-29T14:01:59;4.07;;;3.60;;
80255;SDS011;69564;37.974;23.708;2023-04-29T14:04:25;5.05;;;4.03;;
80255;SDS011;69564;37.974;23.708;2023-04-29T14:06:53;5.13;;;3.97;;
80255;SDS011;69564;37.974;23.708;2023-04-29T14:09:20;4.80;;;3.90;;
80255;SDS011;69564;37.974;23.708;2023-04-29T14:11:46;4.18;;;3.80;;
80255;SDS011;69564;37.974;23.708;2023-04-29T14:14:13;3.83;;;3.53;;
80255;SDS011;69564;37.974;23.708;2023-04-29T14:16:39;5.03;;;3.65;;
80255;SDS011;69564;37.974;23.708;2023-04-29T14:19:05;3.83;;;3.53;;
80255;SDS011;69564;37.974;23.708;2023-04-29T14:21:31;3.80;;;3.50;;
80255;SDS011;69564;37.974;23.708;2023-04-29T14:24:00;4.28;;;3.88;;
80255;SDS011;69564;37.974;23.708;2023-04-29T14:26:27;4.00;;;3.60;;
80255;SDS011;69564;37.974;23.708;2023-04-29T14:28:53;4.00;;;3.58;;
80255;SDS011;69564;37.974;23.708;2023-04-29T14:31:24;4.13;;;3.78;;
80255;SDS011;69564;37.974;23.708;2023-04-29T14:33:54;5.45;;;3.53;;
80255;SDS011;69564;37.974;23.708;2023-04-29T14:36:23;4.32;;;3.92;;
80255;SDS011;69564;37.974;23.708;2023-04-29T14:38:50;3.97;;;3.67;;
80255;SDS011;69564;37.974;23.708;2023-04-29T14:41:16;4.45;;;3.60;;
80255;SDS011;69564;37.974;23.708;2023-04-29T14:43:42;4.00;;;3.60;;
80255;SDS011;69564;37.974;23.708;2023-04-29T14:46:08;6.63;;;3.40;;
80255;SDS011;69564;37.974;23.708;2023-04-29T14:48:34;3.97;;;3.60;;
80255;SDS011;69564;37.974;23.708;2023-04-29T14:51:00;4.65;;;3.55;;
80255;SDS011;69564;37.974;23.708;2023-04-29T14:53:26;4.68;;;3.85;;
80255;SDS011;69564;37.974;23.708;2023-04-29T14:55:51;4.00;;;3.55;;
80255;SDS011;69564;37.974;23.708;2023-04-29T14:58:17;3.90;;;3.60;;
80255;SDS011;69564;37.974;23.708;2023-04-29T15:00:43;3.70;;;3.40;;
80255;SDS011;69564;37.974;23.708;2023-04-29T15:03:09;3.63;;;3.33;;